createdAt,value
2019-03-20T00:00:16.291Z,0.77
2019-03-20T00:05:20.280Z,1.10
2019-03-20T00:10:24.255Z,2.25
2019-03-20T00:15:28.234Z,0.40
2019-03-20T00:20:32.274Z,0.63
2019-03-20T00:25:36.230Z,0.80
2019-03-20T00:30:40.194Z,1.60
2019-03-20T00:35:44.216Z,0.33
2019-03-20T00:40:48.189Z,1.60
2019-03-20T00:45:52.119Z,1.10
2019-03-20T00:50:56.084Z,0.33
2019-03-20T00:56:00.096Z,0.10
2019-03-20T01:01:04.022Z,0.40
2019-03-20T01:06:07.994Z,0.40
2019-03-20T01:11:11.990Z,0.40
2019-03-20T01:16:15.940Z,0.30
2019-03-20T01:21:19.939Z,0.53
2019-03-20T01:26:23.881Z,0.50
2019-03-20T01:31:27.931Z,0.17
2019-03-20T01:36:31.854Z,0.10
2019-03-20T01:41:38.159Z,0.13
2019-03-20T01:46:41.391Z,0.90
2019-03-20T01:51:45.326Z,3.50
2019-03-20T01:56:50.327Z,6.07
2019-03-20T02:01:54.304Z,1.73
2019-03-20T02:06:58.239Z,0.10
2019-03-20T02:12:02.259Z,0.20
2019-03-20T02:17:06.244Z,0.10
2019-03-20T02:22:10.164Z,0.10
2019-03-20T02:27:14.129Z,0.00
2019-03-20T02:32:18.247Z,0.00
2019-03-20T02:37:22.217Z,0.10
2019-03-20T02:42:26.190Z,0.10
2019-03-20T02:47:30.127Z,0.63
2019-03-20T02:52:34.091Z,0.50
2019-03-20T02:57:38.033Z,0.50
2019-03-20T03:02:41.986Z,1.50
2019-03-20T03:07:46.055Z,0.93
2019-03-20T03:12:49.960Z,0.77
2019-03-20T03:17:53.915Z,5.10
2019-03-20T03:22:57.832Z,5.67
2019-03-20T03:28:01.806Z,2.90
2019-03-20T03:33:05.765Z,0.40
2019-03-20T03:38:09.780Z,1.00
2019-03-20T03:43:13.681Z,0.30
2019-03-20T03:48:17.629Z,0.40
2019-03-20T03:53:21.544Z,0.13
2019-03-20T03:58:25.555Z,0.30
2019-03-20T04:03:29.602Z,0.70
2019-03-20T04:08:33.565Z,0.03
2019-03-20T04:13:37.541Z,0.17
2019-03-20T04:18:41.487Z,0.10
2019-03-20T04:23:45.426Z,0.20
2019-03-20T04:28:49.385Z,0.30
2019-03-20T04:33:53.353Z,0.10
2019-03-20T04:38:57.284Z,2.23
2019-03-20T04:44:01.187Z,5.77
2019-03-20T04:49:05.115Z,4.40
2019-03-20T04:54:09.010Z,1.30
2019-03-20T04:59:13.000Z,0.30
2019-03-20T05:04:16.990Z,0.30
2019-03-20T05:09:20.862Z,0.00
2019-03-20T05:14:24.889Z,0.00
2019-03-20T05:19:28.870Z,0.00
2019-03-20T05:24:32.836Z,0.60
2019-03-20T05:29:36.782Z,7.13
2019-03-20T05:34:40.694Z,9.73
2019-03-20T05:39:44.599Z,3.87
2019-03-20T05:44:48.566Z,1.40
2019-03-20T05:49:52.490Z,7.90
2019-03-20T05:54:56.460Z,5.70
2019-03-20T06:00:00.537Z,7.93
2019-03-20T06:05:04.858Z,10.03
2019-03-20T06:10:10.465Z,12.20
2019-03-20T06:15:14.672Z,12.27
2019-03-20T06:20:18.590Z,3.17
2019-03-20T06:25:22.507Z,2.20
2019-03-20T06:30:26.410Z,7.93
2019-03-20T06:35:30.391Z,2.00
2019-03-20T06:40:34.264Z,0.50
2019-03-20T06:45:38.265Z,0.97
2019-03-20T06:50:42.211Z,0.20
2019-03-20T06:55:46.140Z,0.20
2019-03-20T07:00:56.706Z,0.47
2019-03-20T07:06:22.329Z,1.37
2019-03-20T07:11:24.463Z,1.27
2019-03-20T07:16:28.384Z,0.40
2019-03-20T07:21:33.361Z,0.63
2019-03-20T07:26:37.301Z,0.30
2019-03-20T07:31:41.305Z,0.27
2019-03-20T07:36:45.335Z,0.20
2019-03-20T07:41:49.307Z,0.40
2019-03-20T07:46:53.203Z,1.13
2019-03-20T07:51:57.286Z,0.73
2019-03-20T07:57:01.250Z,0.40
2019-03-20T08:02:06.066Z,0.50
2019-03-20T08:07:11.980Z,3.13
2019-03-20T08:12:15.969Z,2.90
2019-03-20T08:17:22.656Z,8.80
2019-03-20T08:22:26.649Z,10.37
2019-03-20T08:27:30.590Z,3.00
2019-03-20T08:32:37.749Z,1.13
2019-03-20T08:37:41.784Z,3.53
2019-03-20T08:42:45.734Z,3.23
2019-03-20T08:47:49.754Z,1.73
2019-03-20T08:52:53.655Z,0.03
2019-03-20T08:57:57.657Z,0.30
2019-03-20T09:03:02.580Z,0.37
2019-03-20T09:08:06.594Z,1.43
2019-03-20T09:13:10.595Z,1.70
2019-03-20T09:18:14.595Z,2.03
2019-03-20T09:23:18.534Z,3.83
2019-03-20T09:28:22.450Z,9.43
2019-03-20T09:33:26.407Z,14.78
2019-03-20T09:38:30.409Z,20.77
2019-03-20T09:43:34.400Z,15.97
2019-03-20T09:48:38.402Z,1.30
2019-03-20T09:53:42.438Z,2.23
2019-03-20T09:58:46.512Z,10.33
2019-03-20T10:03:50.611Z,11.27
2019-03-20T10:08:54.717Z,0.60
2019-03-20T10:13:58.690Z,0.63
2019-03-20T10:19:02.710Z,0.50
2019-03-20T10:24:06.725Z,1.33
2019-03-20T10:29:10.761Z,0.30
2019-03-20T10:34:14.809Z,0.50
2019-03-20T10:39:18.753Z,0.93
2019-03-20T10:44:22.721Z,1.20
2019-03-20T10:49:26.780Z,2.90
2019-03-20T10:54:30.811Z,5.63
2019-03-20T10:59:34.775Z,5.90
2019-03-20T11:04:38.845Z,2.30
2019-03-20T11:09:42.919Z,2.87
2019-03-20T11:14:49.823Z,3.90
2019-03-20T11:19:56.210Z,5.23
2019-03-20T11:24:59.420Z,1.27
2019-03-20T11:30:04.451Z,0.40
2019-03-20T11:35:08.400Z,0.20
2019-03-20T11:40:16.226Z,0.30
2019-03-20T11:45:20.225Z,0.50
2019-03-20T11:50:26.856Z,0.67
2019-03-20T11:55:30.896Z,0.47
2019-03-20T12:00:34.996Z,0.20
2019-03-20T12:05:39.054Z,0.20
2019-03-20T12:10:45.057Z,0.10
2019-03-20T12:15:49.061Z,0.15
2019-03-20T12:20:53.130Z,0.07
2019-03-20T12:25:57.237Z,0.10
2019-03-20T12:31:01.206Z,0.00
2019-03-20T12:36:05.417Z,0.10
2019-03-20T12:41:09.637Z,0.23
2019-03-20T12:46:13.952Z,0.20
2019-03-20T12:51:17.981Z,0.10
2019-03-20T12:56:23.593Z,0.00
2019-03-20T13:01:27.715Z,0.00
2019-03-20T13:06:33.159Z,0.10
2019-03-20T13:11:37.156Z,0.10
2019-03-20T13:16:41.229Z,0.10
2019-03-20T13:21:48.475Z,0.00
2019-03-20T13:26:52.496Z,0.00
2019-03-20T13:31:56.475Z,0.10
2019-03-20T13:37:00.669Z,0.33
2019-03-20T13:42:04.875Z,0.40
2019-03-20T13:47:08.895Z,0.73
2019-03-20T13:52:12.981Z,0.20
2019-03-20T13:57:16.974Z,0.80
2019-03-20T14:02:20.968Z,2.23
2019-03-20T14:07:25.014Z,2.10
2019-03-20T14:12:28.978Z,1.33
2019-03-20T14:17:32.923Z,0.30
2019-03-20T14:22:36.914Z,0.77
2019-03-20T14:27:40.927Z,0.80
2019-03-20T14:32:45.038Z,2.67
2019-03-20T14:37:49.083Z,3.73
2019-03-20T14:42:53.138Z,4.07
2019-03-20T14:47:57.100Z,4.80
2019-03-20T14:53:01.170Z,6.80
2019-03-20T14:58:05.242Z,4.33
2019-03-20T15:03:10.606Z,5.80
2019-03-20T15:08:14.679Z,4.83
2019-03-20T15:13:18.862Z,4.43
2019-03-20T15:18:24.227Z,4.57
2019-03-20T15:23:28.118Z,3.10
2019-03-20T15:28:34.563Z,1.70
2019-03-20T15:33:38.546Z,1.87
2019-03-20T15:38:42.510Z,1.37
2019-03-20T15:43:46.485Z,1.60
2019-03-20T15:48:50.481Z,1.93
2019-03-20T15:53:54.513Z,2.67
2019-03-20T15:58:58.563Z,2.70
2019-03-20T16:04:03.413Z,2.73
2019-03-20T16:09:08.711Z,2.40
2019-03-20T16:14:12.693Z,2.60
2019-03-20T16:19:16.885Z,2.60
2019-03-20T16:24:20.908Z,2.93
2019-03-20T16:29:24.848Z,3.40
2019-03-20T16:34:28.938Z,2.83
2019-03-20T16:39:32.993Z,2.50
2019-03-20T16:44:36.937Z,1.20
2019-03-20T16:49:40.907Z,0.67
2019-03-20T16:54:44.857Z,0.77
2019-03-20T16:59:50.047Z,0.50
2019-03-20T17:04:54.089Z,0.20
2019-03-20T17:10:00.674Z,0.20
2019-03-20T17:15:07.667Z,0.20
2019-03-20T17:20:12.918Z,0.60
2019-03-20T17:25:16.917Z,1.40
2019-03-20T17:30:24.238Z,2.10
2019-03-20T17:35:28.347Z,2.70
2019-03-20T17:40:32.313Z,2.60
2019-03-20T17:45:36.589Z,2.73
2019-03-20T17:50:42.840Z,2.43
2019-03-20T17:55:47.733Z,2.97
2019-03-20T18:00:51.734Z,3.07
2019-03-20T18:05:55.708Z,3.10
2019-03-20T18:10:59.930Z,2.70
2019-03-20T18:16:04.354Z,2.83
2019-03-20T18:21:08.646Z,2.93
2019-03-20T18:26:12.754Z,3.03
2019-03-20T18:31:16.799Z,2.80
2019-03-20T18:36:21.094Z,3.63
2019-03-20T18:41:25.166Z,5.30
2019-03-20T18:46:29.518Z,5.37
2019-03-20T18:51:35.719Z,3.53
2019-03-20T18:56:39.791Z,1.73
2019-03-20T19:01:43.939Z,2.60
2019-03-20T19:06:48.006Z,2.20
2019-03-20T19:11:52.158Z,2.20
2019-03-20T19:16:56.173Z,2.10
2019-03-20T19:22:00.213Z,2.20
2019-03-20T19:27:04.580Z,1.90
2019-03-20T19:32:08.706Z,2.30
2019-03-20T19:37:12.813Z,2.90
2019-03-20T19:42:20.189Z,3.23
2019-03-20T19:47:22.663Z,2.70
2019-03-20T19:52:26.622Z,2.50
2019-03-20T19:57:30.861Z,2.60
2019-03-20T20:02:34.895Z,3.40
2019-03-20T20:07:38.966Z,3.45
2019-03-20T20:12:43.040Z,4.40
2019-03-20T20:17:47.259Z,3.23
2019-03-20T20:22:51.303Z,22.30
2019-03-20T20:27:55.279Z,6.33
2019-03-20T20:32:59.524Z,5.97
2019-03-20T20:38:03.564Z,3.70
2019-03-20T20:43:09.620Z,5.10
2019-03-20T20:48:13.660Z,5.17
2019-03-20T20:53:17.680Z,4.70
2019-03-20T20:58:21.854Z,3.40
2019-03-20T21:03:25.880Z,4.67
2019-03-20T21:08:29.926Z,3.87
2019-03-20T21:13:34.079Z,6.87
2019-03-20T21:19:10.000Z,4.67
2019-03-20T21:24:22.181Z,4.73
2019-03-20T21:29:48.580Z,4.47
2019-03-20T21:35:09.979Z,4.67
2019-03-20T21:40:16.238Z,5.77
2019-03-20T21:45:37.621Z,4.87
2019-03-20T21:51:07.340Z,5.23
2019-03-20T21:56:27.564Z,5.62
2019-03-20T22:01:46.187Z,5.27
2019-03-20T22:07:04.957Z,4.73
2019-03-20T22:12:19.870Z,6.27
2019-03-20T22:17:51.221Z,14.93
2019-03-20T22:23:09.566Z,25.43
2019-03-20T22:28:41.051Z,16.40
2019-03-20T22:34:03.003Z,8.43
2019-03-20T22:39:35.055Z,10.03
2019-03-20T22:44:50.967Z,31.87
2019-03-20T22:50:14.641Z,37.47
2019-03-20T22:55:31.481Z,30.13
2019-03-20T23:00:36.146Z,46.53
2019-03-20T23:05:40.740Z,42.53
2019-03-20T23:10:47.290Z,14.50
2019-03-20T23:15:52.321Z,38.40
2019-03-20T23:20:56.756Z,16.77
2019-03-20T23:26:01.254Z,19.07
2019-03-20T23:31:05.821Z,25.93
2019-03-20T23:36:10.627Z,45.57
2019-03-20T23:41:15.165Z,45.40
2019-03-20T23:46:19.680Z,49.70
2019-03-20T23:51:24.728Z,42.07
2019-03-20T23:56:31.147Z,31.63
